Time;durP1;ratioP1;P1;durP2;ratioP2;P2;SDS_P1;SDS_P2;PMS_P1;PMS_P2;Temp;Humidity;BMP_temperature;BMP_pressure;BME280_temperature;BME280_humidity;BME280_pressure;Samples;Min_cycle;Max_cycle;Signal;HPM_P1;HPM_P2
2024/04/17 00:01:56;;;;;;;1.10;0.90;;;;;;;9.98;100.00;99556.78;5486373;26;20358;-77
2024/04/17 00:04:22;;;;;;;1.75;0.90;;;;;;;10.00;100.00;99558.13;5457672;26;20872;-76
2024/04/17 00:06:47;;;;;;;1.30;1.20;;;;;;;10.00;100.00;99562.72;5490004;26;20317;-77
2024/04/17 00:09:12;;;;;;;1.10;0.80;;;;;;;9.99;100.00;99559.19;5458089;26;20812;-76
2024/04/17 00:11:37;;;;;;;1.50;1.00;;;;;;;9.96;100.00;99554.31;5490104;26;20415;-77
2024/04/17 00:14:03;;;;;;;1.33;0.77;;;;;;;9.97;100.00;99557.84;5490184;26;20330;-76
2024/04/17 00:16:28;;;;;;;1.90;1.10;;;;;;;10.00;100.00;99557.31;5457822;26;20366;-77
2024/04/17 00:18:53;;;;;;;2.67;1.13;;;;;;;9.99;100.00;99559.19;5489796;26;20353;-77
2024/04/17 00:21:18;;;;;;;1.63;0.83;;;;;;;10.01;100.00;99550.84;5489828;26;20680;-76
2024/04/17 00:23:44;;;;;;;1.40;1.00;;;;;;;9.99;100.00;99553.78;5489756;26;20362;-76
2024/04/17 00:26:09;;;;;;;1.23;1.13;;;;;;;9.98;100.00;99548.66;5457682;26;20315;-76
2024/04/17 00:28:34;;;;;;;0.97;0.90;;;;;;;9.98;100.00;99548.66;5489782;26;20662;-77
2024/04/17 00:30:59;;;;;;;0.70;0.70;;;;;;;9.97;100.00;99553.25;5489906;26;20407;-77
2024/04/17 00:33:25;;;;;;;1.50;1.10;;;;;;;10.01;100.00;99548.91;5489702;26;20314;-76
2024/04/17 00:35:51;;;;;;;1.63;1.00;;;;;;;10.01;100.00;99546.22;5489680;26;20318;-77
2024/04/17 00:38:16;;;;;;;0.73;0.70;;;;;;;10.01;100.00;99554.31;5489473;26;20753;-77
2024/04/17 00:40:41;;;;;;;1.13;0.90;;;;;;;10.00;100.00;99546.47;5489550;26;20392;-77
2024/04/17 00:43:06;;;;;;;2.27;1.00;;;;;;;10.01;100.00;99550.84;5489525;26;20318;-77
2024/04/17 00:45:50;;;;;;;1.00;1.00;;;;;;;9.97;100.00;99547.84;5489635;26;20318;-77
2024/04/17 00:48:16;;;;;;;33.00;3.00;;;;;;;9.96;100.00;99548.09;5487411;26;20476;-76
2024/04/17 00:50:45;;;;;;;0.90;0.83;;;;;;;9.92;100.00;99545.09;5487769;26;20370;-76
2024/04/17 00:53:14;;;;;;;2.65;1.10;;;;;;;9.97;100.00;99538.91;5495380;26;20323;-76
2024/04/17 00:55:41;;;;;;;1.52;0.80;;;;;;;9.97;100.00;99541.59;5489403;26;20326;-77
2024/04/17 00:58:06;;;;;;;1.17;0.97;;;;;;;9.94;100.00;99540.25;5489341;26;20387;-77
2024/04/17 01:00:32;;;;;;;1.48;0.95;;;;;;;9.96;100.00;99531.84;5457338;26;20330;-77
2024/04/17 01:02:58;;;;;;;1.00;0.75;;;;;;;9.96;100.00;99535.38;5489377;26;20327;-77
2024/04/17 01:05:23;;;;;;;1.70;1.20;;;;;;;9.92;100.00;99534.25;5489226;26;20358;-77
2024/04/17 01:07:48;;;;;;;2.97;1.48;;;;;;;9.88;100.00;99530.44;5489237;26;20310;-77
2024/04/17 01:10:14;;;;;;;0.80;0.80;;;;;;;9.90;100.00;99534.53;5456926;26;20362;-77
2024/04/17 01:12:40;;;;;;;0.80;0.80;;;;;;;9.95;100.00;99530.19;5489154;26;20307;-77
2024/04/17 01:15:09;;;;;;;0.97;0.93;;;;;;;9.94;100.00;99526.72;5489012;26;20369;-77
2024/04/17 01:17:36;;;;;;;0.93;0.93;;;;;;;9.93;100.00;99537.78;5456915;26;20319;-77
2024/04/17 01:20:02;;;;;;;1.20;1.08;;;;;;;9.91;100.00;99538.06;5489243;26;20409;-77
2024/04/17 01:22:27;;;;;;;1.65;1.10;;;;;;;9.84;100.00;99527.47;5488874;26;20318;-77
2024/04/17 01:24:52;;;;;;;1.30;0.73;;;;;;;9.85;100.00;99529.09;5489191;26;20362;-77
2024/04/17 01:27:18;;;;;;;1.20;1.10;;;;;;;9.77;100.00;99529.59;5456703;26;20323;-77
2024/04/17 01:29:43;;;;;;;1.90;1.00;;;;;;;9.73;100.00;99528.47;5488890;26;20785;-77
2024/04/17 01:32:08;;;;;;;1.50;0.93;;;;;;;9.74;100.00;99523.88;5488853;26;20351;-77
2024/04/17 01:34:33;;;;;;;3.43;1.50;;;;;;;9.78;100.00;99528.50;5488812;26;20412;-77
2024/04/17 01:36:59;;;;;;;1.70;1.10;;;;;;;9.81;100.00;99527.19;5488688;26;20351;-77
2024/04/17 01:39:24;;;;;;;1.10;1.10;;;;;;;9.84;100.00;99527.47;5488603;26;20344;-77
2024/04/17 01:41:49;;;;;;;2.13;1.20;;;;;;;9.72;100.00;99532.25;5488678;26;20857;-78
2024/04/17 01:44:14;;;;;;;1.90;1.30;;;;;;;9.74;100.00;99530.13;5488892;26;20346;-77
2024/04/17 01:46:40;;;;;;;2.70;1.57;;;;;;;9.76;100.00;99527.97;5488739;26;20355;-78
2024/04/17 01:49:05;;;;;;;3.53;1.60;;;;;;;9.79;100.00;99526.59;5488646;26;20730;-77
2024/04/17 01:51:30;;;;;;;2.13;1.60;;;;;;;9.79;100.00;99527.44;5488727;26;20366;-78
2024/04/17 01:53:55;;;;;;;3.80;1.67;;;;;;;9.82;100.00;99532.31;5456460;26;20314;-78
2024/04/17 01:56:21;;;;;;;1.60;1.40;;;;;;;9.85;100.00;99522.84;5488551;26;20367;-78
2024/04/17 01:58:46;;;;;;;3.58;1.48;;;;;;;9.81;100.00;99527.97;5488406;26;20320;-78
2024/04/17 02:01:11;;;;;;;1.77;1.60;;;;;;;9.78;100.00;99516.88;5488648;26;20330;-78
2024/04/17 02:03:37;;;;;;;2.00;1.83;;;;;;;9.79;100.00;99526.59;5488447;26;20805;-78
2024/04/17 02:06:02;;;;;;;1.80;1.70;;;;;;;9.83;100.00;99527.72;5488626;26;20334;-78
2024/04/17 02:08:27;;;;;;;2.90;1.50;;;;;;;9.76;100.00;99530.66;5488269;26;20318;-79
2024/04/17 02:10:53;;;;;;;2.80;2.00;;;;;;;9.76;100.00;99522.53;5488608;26;20765;-78
2024/04/17 02:13:18;;;;;;;1.88;1.77;;;;;;;9.79;100.00;99522.03;5488378;26;20342;-78
2024/04/17 02:15:43;;;;;;;6.37;2.00;;;;;;;9.81;100.00;99527.19;5488360;26;20370;-79
2024/04/17 02:18:09;;;;;;;3.97;1.80;;;;;;;9.82;100.00;99526.09;5488234;26;20755;-78
2024/04/17 02:20:34;;;;;;;3.10;1.70;;;;;;;9.83;100.00;99525.00;5488088;26;20359;-78
2024/04/17 02:22:59;;;;;;;2.00;1.80;;;;;;;9.83;100.00;99525.84;5488321;26;20326;-78
2024/04/17 02:25:24;;;;;;;1.73;1.60;;;;;;;9.84;100.00;99523.94;5487348;26;20354;-78
2024/04/17 02:27:50;;;;;;;1.77;1.67;;;;;;;9.87;100.00;99523.41;5488289;26;20310;-78
2024/04/17 02:30:15;;;;;;;2.30;2.10;;;;;;;9.86;100.00;99525.31;5455848;26;20361;-78
2024/04/17 02:32:40;;;;;;;2.57;1.67;;;;;;;9.84;100.00;99524.75;5488293;26;20666;-78
2024/04/17 02:35:05;;;;;;;2.43;2.27;;;;;;;9.82;100.00;99521.50;5488106;26;20338;-78
2024/04/17 02:37:31;;;;;;;3.20;2.53;;;;;;;9.81;100.00;99519.06;5487752;26;20362;-78
2024/04/17 02:39:56;;;;;;;2.27;2.10;;;;;;;9.80;100.00;99520.94;5487989;26;20326;-78
2024/04/17 02:42:21;;;;;;;5.07;2.73;;;;;;;9.81;100.00;99517.16;5487956;26;20303;-78
2024/04/17 02:44:46;;;;;;;2.45;2.25;;;;;;;9.79;100.00;99521.19;5455796;26;20322;-78
2024/04/17 02:47:12;;;;;;;2.90;2.70;;;;;;;9.77;100.00;99526.06;5487720;26;20486;-78
2024/04/17 02:49:37;;;;;;;2.00;1.90;;;;;;;9.67;100.00;99517.91;5487802;26;20366;-78
2024/04/17 02:52:03;;;;;;;2.73;2.53;;;;;;;9.66;100.00;99522.47;5487749;26;20318;-78
2024/04/17 02:54:28;;;;;;;2.00;1.90;;;;;;;9.67;100.00;99517.91;5487864;26;20445;-78
2024/04/17 02:56:53;;;;;;;4.13;2.50;;;;;;;9.69;100.00;99534.66;5487830;26;20326;-79
2024/04/17 02:59:18;;;;;;;2.87;2.20;;;;;;;9.72;100.00;99534.13;5487813;26;20351;-79
2024/04/17 03:01:44;;;;;;;2.30;2.20;;;;;;;9.75;100.00;99536.31;5500725;26;20785;-79
2024/04/17 03:04:09;;;;;;;3.03;2.77;;;;;;;9.79;100.00;99537.44;5520564;26;20450;-79
2024/04/17 03:06:34;;;;;;;4.90;3.10;;;;;;;9.77;100.00;99531.47;5516323;26;20318;-79
2024/04/17 03:08:59;;;;;;;2.67;2.57;;;;;;;9.78;100.00;99530.41;5520400;26;20690;-79
2024/04/17 03:11:25;;;;;;;3.20;3.00;;;;;;;9.74;100.00;99530.13;5520018;26;20347;-78
2024/04/17 03:13:50;;;;;;;3.40;3.20;;;;;;;9.74;100.00;99535.53;5519987;26;20323;-78
2024/04/17 03:16:16;;;;;;;3.27;2.93;;;;;;;9.71;100.00;99529.81;5516598;26;20319;-78
2024/04/17 03:18:41;;;;;;;3.47;3.17;;;;;;;9.69;100.00;99534.66;5519463;26;20312;-78
2024/04/17 03:21:06;;;;;;;3.93;3.70;;;;;;;9.65;100.00;99530.88;5519939;26;20420;-78
2024/04/17 03:23:32;;;;;;;3.27;2.93;;;;;;;9.64;100.00;99527.34;5487283;26;20733;-79
2024/04/17 03:26:01;;;;;;;3.40;2.93;;;;;;;9.64;100.00;99540.88;5487222;26;20350;-79
2024/04/17 03:28:27;;;;;;;3.57;2.27;;;;;;;9.60;100.00;99541.66;5487206;26;20412;-78
2024/04/17 03:30:53;;;;;;;2.80;2.60;;;;;;;9.57;100.00;99539.47;5487334;26;20314;-78
2024/04/17 03:33:18;;;;;;;1.73;1.63;;;;;;;9.50;100.00;99552.41;5487015;26;20354;-78
2024/04/17 03:35:57;;;;;;;1.55;1.55;;;;;;;9.48;100.00;99544.56;5487120;26;20658;-78
2024/04/17 03:38:23;;;;;;;2.00;1.80;;;;;;;9.47;100.00;99556.44;5488636;26;20373;-78
2024/04/17 03:40:48;;;;;;;3.10;2.90;;;;;;;9.55;100.00;99552.44;5458307;26;20358;-77
2024/04/17 03:43:13;;;;;;;2.70;2.60;;;;;;;9.58;100.00;99560.81;5490618;26;20359;-78
2024/04/17 03:45:39;;;;;;;1.80;1.70;;;;;;;9.58;100.00;99560.03;5490421;26;20322;-78
2024/04/17 03:48:04;;;;;;;1.33;1.33;;;;;;;9.51;100.00;99554.84;5490359;26;20618;-78
2024/04/17 03:50:30;;;;;;;1.50;1.50;;;;;;;9.49;100.00;99562.41;5489963;26;20441;-78
2024/04/17 03:52:55;;;;;;;1.50;1.50;;;;;;;9.50;100.00;99563.22;5490108;26;20314;-78
2024/04/17 03:55:20;;;;;;;1.60;1.60;;;;;;;9.48;100.00;99566.19;5489213;26;20423;-77
2024/04/17 03:57:45;;;;;;;1.80;1.70;;;;;;;9.39;100.00;99568.53;5490232;26;20362;-78
2024/04/17 04:00:11;;;;;;;1.57;1.47;;;;;;;9.35;100.00;99567.41;5490088;26;20424;-77
2024/04/17 04:02:36;;;;;;;2.15;1.95;;;;;;;9.40;100.00;99577.47;5456565;26;20338;-78
2024/04/17 04:05:01;;;;;;;2.00;1.60;;;;;;;9.45;100.00;99572.09;5490011;26;20330;-78
2024/04/17 04:07:27;;;;;;;1.70;1.60;;;;;;;9.44;100.00;99577.78;5489937;26;20342;-78
2024/04/17 04:09:52;;;;;;;2.20;1.40;;;;;;;9.42;100.00;99577.22;5464449;26;20334;-78
2024/04/17 04:12:17;;;;;;;1.07;1.07;;;;;;;9.35;100.00;99572.03;5489274;26;20315;-78
2024/04/17 04:14:43;;;;;;;1.40;1.30;;;;;;;9.37;100.00;99583.41;5489926;26;20326;-78
2024/04/17 04:17:08;;;;;;;3.60;1.00;;;;;;;9.42;100.00;99588.84;5489798;26;20321;-78
2024/04/17 04:19:33;;;;;;;3.77;0.97;;;;;;;9.38;100.00;99585.03;5457428;26;20319;-78
2024/04/17 04:21:58;;;;;;;1.13;1.13;;;;;;;9.37;100.00;99591.50;5489676;26;20330;-78
2024/04/17 04:24:24;;;;;;;1.37;1.27;;;;;;;9.39;100.00;99586.66;5470703;26;20347;-78
2024/04/17 04:26:49;;;;;;;1.40;1.30;;;;;;;9.39;100.00;99602.88;5481785;26;20797;-78
2024/04/17 04:29:14;;;;;;;1.67;0.90;;;;;;;9.35;100.00;99593.66;5489293;26;20344;-78
2024/04/17 04:31:43;;;;;;;0.93;0.93;;;;;;;9.31;100.00;99606.06;5454013;26;20314;-78
2024/04/17 04:34:08;;;;;;;1.17;0.60;;;;;;;9.31;100.00;99606.06;5479505;26;20384;-77
2024/04/17 04:36:33;;;;;;;2.20;0.80;;;;;;;9.29;100.00;99608.19;5480816;26;20351;-78
2024/04/17 04:38:58;;;;;;;1.70;1.27;;;;;;;9.23;100.00;99607.34;5477706;26;20942;-78
2024/04/17 04:41:24;;;;;;;0.60;0.60;;;;;;;9.23;100.00;99614.63;5483162;26;20353;-78
2024/04/17 04:43:49;;;;;;;0.60;0.60;;;;;;;9.26;100.00;99616.81;5488282;26;20417;-78
2024/04/17 04:46:14;;;;;;;4.00;1.17;;;;;;;9.26;100.00;99620.34;5487568;26;20662;-78
2024/04/17 04:48:40;;;;;;;1.30;0.80;;;;;;;9.21;100.00;99628.41;5451538;26;20327;-78
2024/04/17 04:51:05;;;;;;;0.60;0.60;;;;;;;9.19;100.00;99622.44;5474702;26;20810;-78
2024/04/17 04:53:30;;;;;;;1.23;0.80;;;;;;;9.17;100.00;99627.28;5485392;26;20377;-77
2024/04/17 04:55:57;;;;;;;1.80;0.80;;;;;;;9.17;100.00;99632.69;5444487;26;20318;-77
2024/04/17 04:58:22;;;;;;;0.80;0.80;;;;;;;9.12;100.00;99638.03;5488393;26;20326;-78
2024/04/17 05:00:48;;;;;;;2.00;1.00;;;;;;;9.13;100.00;99633.44;5486706;26;20345;-79
2024/04/17 05:03:13;;;;;;;1.25;1.02;;;;;;;9.12;100.00;99635.34;5482364;26;20669;-80
2024/04/17 05:05:38;;;;;;;0.83;0.83;;;;;;;9.15;100.00;99636.75;5489277;26;20363;-78
2024/04/17 05:08:04;;;;;;;0.70;0.70;;;;;;;9.10;100.00;99634.78;5488949;26;20351;-78
2024/04/17 05:10:29;;;;;;;1.50;0.80;;;;;;;9.08;100.00;99641.53;5455449;26;20338;-78
2024/04/17 05:12:54;;;;;;;0.60;0.60;;;;;;;9.07;100.00;99642.59;5488766;26;20682;-78
2024/04/17 05:15:20;;;;;;;0.70;0.50;;;;;;;9.11;100.00;99641.00;5467572;26;20372;-78
2024/04/17 05:17:45;;;;;;;1.40;1.20;;;;;;;9.07;100.00;99642.59;5478554;26;20326;-79
2024/04/17 05:20:10;;;;;;;1.20;1.10;;;;;;;9.02;100.00;99642.56;5480918;26;20341;-83
2024/04/17 05:22:36;;;;;;;0.70;0.70;;;;;;;9.03;100.00;99644.16;5460591;26;20424;-76
2024/04/17 05:25:01;;;;;;;0.80;0.80;;;;;;;9.07;100.00;99653.41;5470939;26;20326;-78
2024/04/17 05:27:26;;;;;;;0.90;0.90;;;;;;;9.06;100.00;99652.56;5483707;26;20325;-79
2024/04/17 05:29:52;;;;;;;0.57;0.52;;;;;;;9.02;100.00;99650.66;5475913;26;20490;-73
2024/04/17 05:32:17;;;;;;;0.57;0.57;;;;;;;9.03;100.00;99653.09;5477831;26;20306;-76
2024/04/17 05:34:43;;;;;;;2.80;0.77;;;;;;;9.02;100.00;99650.66;5484125;26;20320;-77
2024/04/17 05:37:08;;;;;;;0.82;0.80;;;;;;;8.93;100.00;99660.25;5520897;26;20367;-79
2024/04/17 05:39:33;;;;;;;1.00;0.90;;;;;;;8.96;100.00;99655.16;5456924;26;20310;-78
2024/04/17 05:41:58;;;;;;;0.95;0.80;;;;;;;8.98;100.00;99660.34;5487989;26;20381;-75
2024/04/17 05:44:24;;;;;;;0.93;0.93;;;;;;;8.97;100.00;99661.41;5488466;26;20314;-76
2024/04/17 05:46:49;;;;;;;1.10;1.10;;;;;;;9.07;100.00;99662.31;5488414;26;20419;-76
2024/04/17 05:49:14;;;;;;;1.10;1.10;;;;;;;9.02;100.00;99667.69;5485990;26;20801;-76
2024/04/17 05:51:40;;;;;;;1.20;1.10;;;;;;;8.91;100.00;99665.94;5497600;26;20311;-75
2024/04/17 05:54:05;;;;;;;1.47;1.37;;;;;;;8.89;100.00;99672.66;5488386;26;20342;-75
2024/04/17 05:56:30;;;;;;;2.90;2.10;;;;;;;8.86;100.00;99663.97;5487852;26;20657;-76
2024/04/17 05:58:55;;;;;;;4.23;3.17;;;;;;;8.92;100.00;99666.75;5487932;26;20327;-75
2024/04/17 06:01:21;;;;;;;5.70;3.00;;;;;;;8.90;100.00;99669.69;5450537;26;20812;-76
2024/04/17 06:03:46;;;;;;;4.07;3.10;;;;;;;8.93;100.00;99671.06;5518461;26;20307;-76
2024/04/17 06:06:11;;;;;;;2.85;2.35;;;;;;;8.82;100.00;99680.97;5495390;26;20318;-76
2024/04/17 06:08:36;;;;;;;5.27;3.23;;;;;;;8.75;100.00;99683.84;5488330;26;20357;-76
2024/04/17 06:11:02;;;;;;;3.40;2.20;;;;;;;8.70;100.00;99694.59;5486111;26;20310;-76
2024/04/17 06:13:27;;;;;;;1.70;1.60;;;;;;;8.65;100.00;99694.53;5489296;26;20314;-75
2024/04/17 06:15:52;;;;;;;1.73;1.63;;;;;;;8.71;100.00;99698.13;5488520;26;20338;-76
2024/04/17 06:18:18;;;;;;;5.27;4.27;;;;;;;8.72;100.00;99697.88;5508195;26;20832;-77
2024/04/17 06:20:43;;;;;;;4.53;4.10;;;;;;;8.79;100.00;99703.88;5490496;26;20332;-75
2024/04/17 06:23:09;;;;;;;2.33;2.22;;;;;;;8.83;100.00;99702.31;5489669;26;20910;-78
2024/04/17 06:25:34;;;;;;;3.20;1.50;;;;;;;8.86;100.00;99704.50;5487708;26;20314;-78
2024/04/17 06:27:59;;;;;;;0.90;0.90;;;;;;;8.99;100.00;99706.00;5455673;26;20365;-77
2024/04/17 06:30:24;;;;;;;0.87;0.87;;;;;;;9.07;100.00;99704.75;5487985;26;20310;-77
2024/04/17 06:32:50;;;;;;;1.70;1.37;;;;;;;9.05;100.00;99710.44;5455723;26;20829;-78
2024/04/17 06:35:15;;;;;;;1.30;1.30;;;;;;;9.09;100.00;99708.03;5491850;26;20362;-77
2024/04/17 06:37:40;;;;;;;1.00;1.00;;;;;;;9.13;100.00;99712.66;5487850;26;20320;-73
2024/04/17 06:40:06;;;;;;;1.40;1.40;;;;;;;9.17;100.00;99704.88;5519820;26;20878;-75
2024/04/17 06:42:31;;;;;;;1.23;1.23;;;;;;;9.19;100.00;99705.41;5520813;26;20786;-76
2024/04/17 06:44:58;;;;;;;2.07;1.10;;;;;;;9.18;100.00;99701.09;5492908;26;20350;-78
2024/04/17 06:47:24;;;;;;;0.97;0.90;;;;;;;9.22;100.00;99715.75;5487826;26;20310;-78
2024/04/17 06:49:49;;;;;;;2.20;1.10;;;;;;;9.26;100.00;99714.16;5487551;26;20356;-76
2024/04/17 06:52:14;;;;;;;1.35;1.25;;;;;;;9.28;100.00;99722.84;5488093;26;20307;-76
2024/04/17 06:54:40;;;;;;;1.50;1.40;;;;;;;9.27;100.00;99721.19;5486892;26;20891;-76
2024/04/17 06:57:05;;;;;;;1.45;1.40;;;;;;;9.29;100.00;99727.97;5497448;26;20318;-76
2024/04/17 06:59:30;;;;;;;1.47;1.40;;;;;;;9.33;100.00;99731.00;5487455;26;20322;-76
2024/04/17 07:01:56;;;;;;;1.63;1.53;;;;;;;9.34;100.00;99724.53;5486325;26;20428;-76
2024/04/17 07:04:23;;;;;;;1.70;1.60;;;;;;;9.35;100.00;99728.88;5486039;26;20642;-76
2024/04/17 07:06:48;;;;;;;1.30;1.30;;;;;;;9.44;100.00;99729.22;5511252;26;20306;-76
2024/04/17 07:09:13;;;;;;;1.60;1.60;;;;;;;9.48;100.00;99736.59;5487233;26;20314;-76
2024/04/17 07:11:38;;;;;;;1.57;1.57;;;;;;;9.54;100.00;99732.03;5485289;26;20354;-76
2024/04/17 07:14:04;;;;;;;2.00;1.50;;;;;;;9.57;100.00;99743.16;5476782;26;20365;-76
2024/04/17 07:16:29;;;;;;;1.70;1.60;;;;;;;9.56;100.00;99740.69;5487125;26;20397;-76
2024/04/17 07:18:54;;;;;;;2.43;2.00;;;;;;;9.55;100.00;99734.47;5487406;26;20493;-76
2024/04/17 07:21:19;;;;;;;1.80;1.70;;;;;;;9.59;100.00;99737.47;5487211;26;20686;-76
2024/04/17 07:23:45;;;;;;;2.17;2.08;;;;;;;9.66;100.00;99729.97;5510560;26;20316;-76
2024/04/17 07:26:10;;;;;;;2.03;1.93;;;;;;;9.71;100.00;99736.25;5492866;26;20358;-76
2024/04/17 07:28:36;;;;;;;2.75;2.42;;;;;;;9.76;100.00;99735.47;5519656;26;20334;-75
2024/04/17 07:31:01;;;;;;;4.50;2.57;;;;;;;9.75;100.00;99739.25;5517153;26;20314;-76
2024/04/17 07:33:26;;;;;;;2.33;2.13;;;;;;;9.62;100.00;99743.19;5518157;26;20656;-76
2024/04/17 07:35:58;;;;;;;2.67;2.47;;;;;;;9.59;100.00;99735.59;5516592;26;20686;-76
2024/04/17 07:38:24;;;;;;;2.45;2.35;;;;;;;9.61;100.00;99738.06;5462125;26;20370;-76
2024/04/17 07:40:57;;;;;;;3.33;2.90;;;;;;;9.71;100.00;99740.84;5486549;26;20861;-76
2024/04/17 07:43:22;;;;;;;2.92;2.63;;;;;;;9.67;100.00;99745.97;5485332;26;20638;-76
2024/04/17 07:45:51;;;;;;;2.50;2.30;;;;;;;9.53;100.00;99744.72;5486595;26;20411;-76
2024/04/17 07:48:16;;;;;;;5.30;3.58;;;;;;;9.58;100.00;99752.09;5477250;26;20372;-76
2024/04/17 07:50:41;;;;;;;3.33;3.07;;;;;;;9.63;100.00;99752.13;5486795;26;20699;-76
2024/04/17 07:53:06;;;;;;;3.97;3.33;;;;;;;9.70;100.00;99750.03;5484717;26;20322;-77
2024/04/17 07:55:32;;;;;;;2.97;2.67;;;;;;;9.69;100.00;99751.91;5490455;26;20326;-75
2024/04/17 07:57:57;;;;;;;3.20;2.90;;;;;;;9.68;100.00;99752.19;5518485;26;20633;-76
2024/04/17 08:00:22;;;;;;;4.67;2.73;;;;;;;9.75;100.00;99752.78;5519150;26;20673;-76
2024/04/17 08:02:48;;;;;;;5.18;3.42;;;;;;;9.82;100.00;99753.38;5507713;26;20311;-76
2024/04/17 08:05:13;;;;;;;5.37;3.20;;;;;;;9.94;100.00;99755.94;5471230;26;20341;-76
2024/04/17 08:07:38;;;;;;;3.60;3.30;;;;;;;9.95;100.00;99762.97;5486075;26;20832;-76
2024/04/17 08:10:04;;;;;;;3.20;3.00;;;;;;;9.92;100.00;99761.59;5486304;26;20363;-76
2024/04/17 08:12:29;;;;;;;4.60;3.25;;;;;;;9.95;100.00;99757.56;5452826;26;20739;-76
2024/04/17 08:14:54;;;;;;;4.87;3.63;;;;;;;9.98;100.00;99757.06;5486189;26;20330;-76
2024/04/17 08:17:19;;;;;;;6.07;3.97;;;;;;;10.01;100.00;99770.88;5486029;26;20322;-76
2024/04/17 08:19:45;;;;;;;4.10;3.60;;;;;;;10.00;100.00;99763.84;5485923;26;20314;-77
2024/04/17 08:22:12;;;;;;;4.30;3.40;;;;;;;9.98;100.00;99763.28;5498158;26;20397;-76
2024/04/17 08:24:37;;;;;;;3.30;3.00;;;;;;;9.92;100.00;99767.00;5488440;26;20323;-76
2024/04/17 08:27:03;;;;;;;6.90;3.53;;;;;;;9.94;100.00;99774.88;5489665;26;20720;-76
2024/04/17 08:29:28;;;;;;;6.33;3.93;;;;;;;10.02;100.00;99764.41;5457728;26;20346;-76
2024/04/17 08:31:53;;;;;;;6.45;4.15;;;;;;;10.14;100.00;99764.25;5489741;26;20311;-76
2024/04/17 08:34:19;;;;;;;4.07;3.43;;;;;;;10.19;100.00;99765.13;5488476;26;20322;-76
2024/04/17 08:36:44;;;;;;;3.50;3.10;;;;;;;10.19;100.00;99767.81;5457339;26;20423;-76
2024/04/17 08:39:09;;;;;;;6.30;3.30;;;;;;;10.08;100.00;99773.38;5478116;26;20351;-76
2024/04/17 08:41:46;;;;;;;5.50;3.45;;;;;;;10.08;100.00;99776.91;5457537;26;20314;-76
2024/04/17 08:44:15;;;;;;;3.97;3.53;;;;;;;10.12;100.00;99777.19;5488175;26;20338;-76
2024/04/17 08:46:43;;;;;;;6.50;3.50;;;;;;;10.16;100.00;99778.34;5489380;26;20318;-77
2024/04/17 08:49:10;;;;;;;3.90;3.22;;;;;;;10.17;100.00;99775.41;5457638;26;20336;-76
2024/04/17 08:51:35;;;;;;;5.10;3.65;;;;;;;10.31;100.00;99779.28;5489343;26;20792;-76
2024/04/17 08:54:03;;;;;;;6.87;3.30;;;;;;;10.42;100.00;99782.88;5488920;26;20355;-78
2024/04/17 08:56:30;;;;;;;4.95;4.45;;;;;;;10.44;100.00;99778.00;5438356;26;20448;-76
2024/04/17 08:58:55;;;;;;;5.28;3.60;;;;;;;10.42;100.00;99780.19;5489163;26;20310;-76
2024/04/17 09:01:26;;;;;;;4.85;3.67;;;;;;;10.44;100.00;99786.13;5489350;26;20347;-77
2024/04/17 09:03:52;;;;;;;8.25;4.30;;;;;;;10.47;100.00;99785.66;5488120;26;20351;-76
2024/04/17 09:06:17;;;;;;;4.40;3.50;;;;;;;10.47;100.00;99782.13;5457056;26;20310;-77
2024/04/17 09:08:43;;;;;;;5.93;4.60;;;;;;;10.42;100.00;99774.75;5489027;26;20344;-76
2024/04/17 09:11:09;;;;;;;7.15;4.13;;;;;;;10.36;100.00;99775.81;5489165;26;20302;-77
2024/04/17 09:13:35;;;;;;;5.95;3.97;;;;;;;10.37;100.00;99777.44;5485669;26;20347;-77
2024/04/17 09:16:00;;;;;;;6.70;4.30;;;;;;;10.35;100.00;99782.28;5482636;26;20316;-77
2024/04/17 09:18:26;;;;;;;7.20;4.40;;;;;;;10.38;100.00;99784.47;5518387;26;20450;-76
2024/04/17 09:20:51;;;;;;;7.80;5.10;;;;;;;10.38;100.00;99787.19;5493821;26;20682;-76
2024/04/17 09:23:16;;;;;;;9.60;5.57;;;;;;;10.42;100.00;99785.59;5478391;26;20309;-76
2024/04/17 09:25:41;;;;;;;7.13;4.43;;;;;;;10.40;100.00;99779.63;5466173;26;20463;-76
2024/04/17 09:28:11;;;;;;;6.67;5.20;;;;;;;10.42;100.00;99782.88;5499408;26;20318;-76
2024/04/17 09:30:37;;;;;;;7.00;5.40;;;;;;;10.57;100.00;99785.69;5484368;26;20346;-77
2024/04/17 09:33:04;;;;;;;8.93;5.53;;;;;;;10.87;100.00;99780.44;5488993;26;20444;-76
2024/04/17 09:35:29;;;;;;;6.28;5.05;;;;;;;11.21;100.00;99780.88;5486887;26;20428;-77
2024/04/17 09:37:54;;;;;;;6.90;4.60;;;;;;;11.67;100.00;99787.28;5488486;26;20330;-76
2024/04/17 09:40:19;;;;;;;7.95;5.22;;;;;;;12.11;100.00;99775.97;5488459;26;20310;-76
2024/04/17 09:42:46;;;;;;;6.90;4.57;;;;;;;12.67;100.00;99779.44;5488697;26;20346;-76
2024/04/17 09:45:15;;;;;;;8.33;4.50;;;;;;;13.16;100.00;99777.69;5509686;26;20308;-77
2024/04/17 09:47:44;;;;;;;8.52;4.78;;;;;;;13.15;100.00;99772.53;5468045;26;20365;-76
2024/04/17 09:50:17;;;;;;;8.18;4.60;;;;;;;12.59;100.00;99783.53;5486816;26;20319;-76
2024/04/17 09:52:44;;;;;;;7.95;4.68;;;;;;;12.20;100.00;99775.16;5492433;26;20363;-77
2024/04/17 09:55:11;;;;;;;6.43;4.35;;;;;;;12.20;100.00;99775.16;5493980;26;20319;-77
2024/04/17 09:57:36;;;;;;;4.95;4.25;;;;;;;12.15;100.00;99777.84;5492340;26;20336;-78
2024/04/17 10:00:04;;;;;;;7.53;5.15;;;;;;;12.16;100.00;99774.06;5486895;26;20345;-77
2024/04/17 10:02:31;;;;;;;9.38;5.18;;;;;;;12.08;100.00;99784.66;5503148;26;20786;-77
2024/04/17 10:04:56;;;;;;;9.03;4.60;;;;;;;11.92;100.00;99771.03;5469494;26;20317;-77
2024/04/17 10:07:24;;;;;;;9.03;5.07;;;;;;;11.75;100.00;99766.97;5485409;26;20837;-77
2024/04/17 10:09:51;;;;;;;8.57;5.37;;;;;;;11.71;100.00;99765.88;5488125;26;20306;-77
2024/04/17 10:12:18;;;;;;;10.17;5.63;;;;;;;11.72;100.00;99762.09;5487295;26;20303;-77
2024/04/17 10:14:43;;;;;;;13.55;7.82;;;;;;;11.68;100.00;99759.06;5488027;26;20880;-76
2024/04/17 10:17:09;;;;;;;11.07;4.80;;;;;;;11.57;100.00;99764.72;5484283;26;20487;-77
2024/04/17 10:19:35;;;;;;;9.10;5.60;;;;;;;11.40;100.00;99770.38;5487963;26;20314;-77
2024/04/17 10:22:04;;;;;;;12.63;6.13;;;;;;;11.29;100.00;99766.00;5470697;26;20315;-77
2024/04/17 10:24:30;;;;;;;9.43;6.22;;;;;;;11.17;100.00;99762.69;5488185;26;20347;-77
2024/04/17 10:26:57;;;;;;;9.10;6.33;;;;;;;11.04;100.00;99764.00;5487669;26;20386;-77
2024/04/17 10:29:27;;;;;;;8.93;5.82;;;;;;;10.93;100.00;99759.63;5487633;26;20314;-77
2024/04/17 10:32:04;;;;;;;14.52;6.65;;;;;;;10.84;100.00;99774.75;5487184;26;20670;-77
2024/04/17 10:34:41;;;;;;;8.32;5.15;;;;;;;10.74;100.00;99777.41;5511788;26;20320;-77
2024/04/17 10:37:08;;;;;;;7.32;5.25;;;;;;;10.58;100.00;99787.31;5510988;26;20647;-77
2024/04/17 10:39:37;;;;;;;8.65;4.57;;;;;;;10.50;100.00;99789.72;5487678;26;20428;-76
2024/04/17 10:42:04;;;;;;;6.30;4.25;;;;;;;10.37;100.00;99786.34;5486036;26;20322;-77
2024/04/17 10:44:29;;;;;;;7.72;4.38;;;;;;;10.27;100.00;99777.38;5513223;26;20316;-78
2024/04/17 10:47:04;;;;;;;6.73;4.30;;;;;;;10.20;100.00;99776.78;5515813;26;20342;-77
2024/04/17 10:49:40;;;;;;;9.70;5.30;;;;;;;10.17;100.00;99769.97;5520109;26;20351;-77
2024/04/17 10:52:05;;;;;;;6.53;4.25;;;;;;;10.15;100.00;99774.00;5492652;26;20322;-77
2024/04/17 10:54:36;;;;;;;7.67;4.20;;;;;;;9.98;100.00;99776.81;5480670;26;20360;-79
2024/04/17 10:57:03;;;;;;;5.63;4.13;;;;;;;9.87;100.00;99773.22;5462864;26;20870;-77
2024/04/17 10:59:29;;;;;;;5.15;3.75;;;;;;;9.90;100.00;99775.41;5487229;26;20314;-77
2024/04/17 11:01:55;;;;;;;5.20;3.37;;;;;;;9.89;100.00;99764.81;5482806;26;20644;-77
2024/04/17 11:04:23;;;;;;;8.35;3.50;;;;;;;9.81;100.00;99763.38;5487404;26;20352;-77
2024/04/17 11:06:49;;;;;;;2.90;2.70;;;;;;;9.79;100.00;99760.13;5461881;26;20424;-77
2024/04/17 11:09:14;;;;;;;6.65;3.15;;;;;;;9.90;100.00;99772.69;5487353;26;20334;-77
2024/04/17 11:11:44;;;;;;;4.10;3.15;;;;;;;10.02;100.00;99777.09;5472224;26;20321;-77
2024/04/17 11:14:16;;;;;;;5.77;3.07;;;;;;;10.07;100.00;99774.47;5480962;26;20315;-77
2024/04/17 11:16:43;;;;;;;5.28;2.80;;;;;;;10.16;100.00;99776.47;5486648;26;20318;-77
2024/04/17 11:19:09;;;;;;;4.37;3.40;;;;;;;10.32;100.00;99777.41;5487047;26;20716;-76
2024/04/17 11:21:35;;;;;;;4.78;3.22;;;;;;;10.46;100.00;99786.72;5485747;26;20646;-77
2024/04/17 11:24:02;;;;;;;4.82;2.83;;;;;;;10.49;100.00;99786.19;5453720;26;20378;-77
2024/04/17 11:26:30;;;;;;;5.22;2.50;;;;;;;10.52;100.00;99792.97;5486521;26;20322;-77